Latest Coastal Weather Observations for Point Avoid

IDS60701

Issued at 10:21 am CST Saturday 20 April 2024 (issued every 10 minutes, with the page automatically refreshed every 10 minutes)

About coastal observations | Map of coastal stations | Coastal observations for SA | Marine services | Other Formats
Station Details ID: 018230 Name: POINT AVOID Lat: -34.67 Lon: 135.34 Height: 35.0 m
Data from the previous 72 hours. | See also: Recent months at Point Avoid
Date/Time
CST
Wind Sea
Height
m
Swell Vis
km
Cloud Weather Temp
°C
Press
MSL
hPa
Rain since
9am
mm
Dir  Spd
kts
Gust
kts
Height
m
Period
s
Dir
20/10:00am SE 8 11 - - - - - - - 16.6 1031.9 0.0
20/09:30am SE 9 12 - - - - - - - 15.8 1032.0 0.0
20/09:00am ESE 8 11 - - - - - - - 15.6 1031.7 -
20/08:30am - - - - - - - - - - 14.9 1031.6 -
20/08:00am SE 6 10 - - - - - - - 14.3 1031.0 0.0
20/07:30am ESE 5 8 - - - - - - - 13.7 1030.7 0.0
20/07:00am ESE 7 10 - - - - - - - 13.6 1030.5 0.0
20/06:30am ESE 5 8 - - - - - - - 13.3 1030.4 0.0
20/06:00am ESE 5 7 - - - - - - - 13.5 1030.5 0.0
20/05:30am ESE 5 7 - - - - - - - 13.5 1030.4 0.0
20/05:00am E 4 8 - - - - - - - 13.3 1030.3 0.0
20/04:30am SE 5 7 - - - - - - - 13.3 1030.1 0.0
20/04:00am ESE 6 9 - - - - - - - 13.2 1029.9 0.0
20/03:30am ESE 6 12 - - - - - - - 13.3 1030.0 0.0
20/03:00am ESE 9 13 - - - - - - - 13.4 1030.0 0.0
20/02:30am ESE 11 15 - - - - - - - 13.4 1030.1 0.0
20/02:00am ESE 10 13 - - - - - - - 13.4 1030.1 0.0
20/01:30am ESE 8 14 - - - - - - - 13.2 1030.2 0.0
20/01:00am ESE 7 12 - - - - - - - 13.2 1030.2 0.0
20/12:30am ESE 8 13 - - - - - - - 13.5 1030.2 0.0
20/12:00am SE 11 14 - - - - - - - 13.7 1030.1 0.0
 
Date/Time
CST
Wind Sea
Height
m
Swell Vis
km
Cloud Weather Temp
°C
Press
MSL
hPa
Rain since
9am
mm
Dir  Spd
kts
Gust
kts
Height
m
Period
s
Dir
19/11:30pm ESE 11 16 - - - - - - - 13.7 1030.1 0.0
19/11:00pm SE 10 13 - - - - - - - 13.8 1030.1 0.0
19/10:30pm SE 11 14 - - - - - - - 14.1 1030.2 0.0
19/10:00pm SE 10 13 - - - - - - - 13.9 1030.4 0.0
19/09:30pm SE 10 13 - - - - - - - 13.9 1030.1 0.0
19/09:00pm SE 9 11 - - - - - - - 13.4 1029.9 0.0
19/08:30pm SE 8 10 - - - - - - - 13.4 1029.7 0.0
19/08:00pm SE 9 12 - - - - - - - 13.5 1029.4 0.0
19/07:30pm SE 7 9 - - - - - - - 13.3 1029.4 0.0
19/07:00pm SE 9 11 - - - - - - - 13.9 1028.9 0.0
19/06:30pm SE 10 12 - - - - - - - 14.3 1028.8 0.0
19/06:00pm SE 11 13 - - - - - - - 14.7 1028.4 0.0
19/05:30pm SSE 12 15 - - - - - - - 15.4 1028.0 0.0
19/05:00pm SSE 11 14 - - - - - - - 16.1 1027.8 0.0
19/04:30pm SSE 11 14 - - - - - - - 17.0 1027.6 0.0
19/04:00pm SSE 10 13 - - - - - - - 17.4 1027.5 0.0
19/03:30pm SE 10 15 - - - - - - - 17.5 1027.6 0.0
19/03:00pm SE 12 16 - - - - - - - 17.4 1027.6 0.0
19/02:30pm SSE 13 16 - - - - - - - 17.4 1027.5 0.0
19/02:00pm SSE 13 17 - - - - - - - 17.2 1027.4 0.0
19/01:30pm S 15 19 - - - - - - - 17.3 1027.4 0.0
19/01:00pm SSE 13 17 - - - - - - - 17.4 1027.4 0.0
19/12:30pm SSE 13 17 - - - - - - - 18.2 1027.6 0.0
19/12:00pm SSE 9 12 - - - - - - - 19.3 1027.8 0.0
19/11:30am SE 11 15 - - - - - - - 17.3 1028.0 0.0
19/11:00am SSE 12 15 - - - - - - - 18.0 1027.7 0.0
19/10:30am SSE 10 13 - - - - - - - 17.4 1027.5 0.0
19/10:00am SE 11 15 - - - - - - - 17.0 1027.2 0.0
19/09:30am SE 10 13 - - - - - - - 16.1 1027.2 0.0
19/09:00am SSE 11 13 - - - - - - - 16.0 1027.0 1.6
19/08:30am SSE 11 15 - - - - - - - 15.5 1026.8 1.6
19/08:00am SE 10 14 - - - - - - - 14.9 1026.6 1.6
19/07:30am SSE 14 19 - - - - - - - 14.2 1026.3 1.6
19/07:00am SSE 13 17 - - - - - - - 14.3 1025.5 1.6
19/06:30am S 14 17 - - - - - - - 13.9 1025.6 1.6
19/06:00am S 12 17 - - - - - - - 13.9 1025.5 1.6
19/05:30am S 16 21 - - - - - - - 14.1 1025.3 1.6
19/05:00am SSE 13 19 - - - - - - - 14.2 1025.0 1.6
19/04:30am SSE 13 20 - - - - - - - 14.9 1024.5 1.4
19/04:00am S 11 17 - - - - - - - 15.3 1024.3 0.6
19/03:30am S 13 18 - - - - - - - 15.4 1024.1 0.6
19/03:00am S 12 17 - - - - - - Recent precip. 15.5 1024.3 0.6
19/02:30am SSW 10 13 - - - - - - - 15.9 1024.4 0.4
19/02:00am SW 6 9 - - - - - - - 15.7 1024.5 0.0
19/01:30am SW 5 7 - - - - - - - 15.7 1024.6 0.0
19/01:00am SW 6 8 - - - - - - - 15.8 1024.9 0.0
19/12:30am SW 8 11 - - - - - - - 15.9 1025.1 0.0
19/12:00am SSW 7 9 - - - - - - - 15.7 1025.4 0.0
 
Date/Time
CST
Wind Sea
Height
m
Swell Vis
km
Cloud Weather Temp
°C
Press
MSL
hPa
Rain since
9am
mm
Dir  Spd
kts
Gust
kts
Height
m
Period
s
Dir
18/11:30pm SW 9 11 - - - - - - - 16.0 1025.5 0.0
18/11:00pm SW 5 7 - - - - - - - 15.8 1025.6 0.0
18/10:30pm SSW 6 9 - - - - - - - 15.8 1026.0 0.0
18/10:00pm SSW 8 13 - - - - - - - 16.0 1026.4 0.0
18/09:30pm SW 8 11 - - - - - - - 15.6 1026.4 0.0
18/09:00pm SW 4 6 - - - - - - - 15.2 1026.5 0.0
18/08:30pm SW 7 9 - - - - - - - 15.2 1026.3 0.0
18/08:00pm SW 7 9 - - - - - - - 15.2 1026.3 0.0
18/07:30pm WSW 4 5 - - - - - - - 14.5 1026.2 0.0
18/07:00pm WSW 5 6 - - - - - - - 14.3 1025.9 0.0
18/06:30pm WSW 7 9 - - - - - - - 14.4 1025.9 0.0
18/06:00pm SW 10 15 - - - - - - - 16.0 1026.2 0.0
18/05:30pm SW 10 18 - - - - - - - 16.3 1026.2 0.0
18/05:00pm WSW 9 12 - - - - - - - 16.7 1026.2 0.0
18/04:30pm WSW 8 10 - - - - - - - 16.8 1026.2 0.0
18/04:00pm WSW 8 11 - - - - - - - 17.7 1026.5 0.0
18/03:30pm WSW 9 11 - - - - - - - 18.2 1026.6 0.0
18/03:00pm WSW 9 11 - - - - - - - 17.8 1026.7 0.0
18/02:30pm WSW 9 11 - - - - - - - 18.2 1026.8 0.0
18/02:00pm WSW 10 13 - - - - - - - 17.8 1027.1 0.0
18/01:30pm WSW 12 15 - - - - - - - 17.7 1027.3 0.0
18/01:00pm WSW 10 13 - - - - - - - 18.4 1027.7 0.0
18/12:30pm SW 8 11 - - - - - - - 17.8 1028.2 0.0
18/12:00pm SW 9 12 - - - - - - - 18.1 1028.5 0.0
18/11:30am SSW 9 11 - - - - - - - 17.8 1028.6 0.0
18/11:00am SW 5 10 - - - - - - - 17.5 1028.8 0.0
18/10:30am WSW 3 6 - - - - - - - 17.9 1028.9 0.0
18/10:00am WNW 3 4 - - - - - - - 16.8 1028.9 0.0
18/09:30am W 2 3 - - - - - - - 16.0 1029.0 0.0
18/09:00am W 3 4 - - - - - - - 14.8 1029.0 0.0
18/08:30am W 3 4 - - - - - - - 14.5 1029.0 0.0
18/08:00am SE 3 4 - - - - - - - 14.0 1028.5 0.0
18/07:30am SE 2 3 - - - - - - - 13.5 1028.2 0.0
18/07:00am SE 1 2 - - - - - - - 13.2 1028.0 0.0
18/06:30am CALM 0 2 - - - - - - - 13.3 1027.9 0.0
18/06:00am CALM 0 0 - - - - - - - 13.1 1027.7 0.0
18/05:30am SE 1 2 - - - - - - - 13.1 1027.5 0.0
18/05:00am SE 1 2 - - - - - - - 13.2 1027.4 0.0
18/04:30am SE 2 2 - - - - - - - 13.2 1027.4 0.0
18/04:00am SE 2 2 - - - - - - - 13.2 1027.4 0.0
18/03:30am SE 3 3 - - - - - - - 13.2 1027.4 0.0
18/03:00am S 3 4 - - - - - - - 13.4 1027.6 0.0
18/02:30am SE 2 3 - - - - - - - 13.2 1028.0 0.0
18/02:00am SE 2 2 - - - - - - - 13.1 1028.2 0.0
18/01:30am SE 3 3 - - - - - - - 13.4 1028.4 0.0
18/01:00am SE 3 4 - - - - - - - 13.4 1028.4 0.0
18/12:30am SE 3 4 - - - - - - - 13.2 1028.5 0.0
18/12:00am SSE 4 5 - - - - - - - 13.4 1028.5 0.0
 
Date/Time
CST
Wind Sea
Height
m
Swell Vis
km
Cloud Weather Temp
°C
Press
MSL
hPa
Rain since
9am
mm
Dir  Spd
kts
Gust
kts
Height
m
Period
s
Dir
17/11:30pm SSE 6 11 - - - - - - - 13.6 1028.8 0.0
17/11:00pm SE 6 8 - - - - - - - 13.0 1028.9 0.0
17/10:30pm SE 6 8 - - - - - - - 13.1 1028.9 0.0
17/10:00pm SE 8 10 - - - - - - - 13.8 1029.1 0.0
17/09:30pm SSE 8 10 - - - - - - - 13.9 1029.2 0.0
17/09:00pm SSE 8 10 - - - - - - - 14.1 1029.1 0.0
17/08:30pm SSE 9 12 - - - - - - - 14.4 1029.1 0.0
17/08:00pm SSE 8 10 - - - - - - - 14.1 1029.0 0.0
17/07:30pm SSE 8 11 - - - - - - - 14.6 1028.8 0.0
17/07:00pm SSE 10 13 - - - - - - - 14.8 1028.5 0.0
17/06:30pm SSE 8 10 - - - - - - - 14.3 1028.2 0.0
17/06:00pm SSE 8 10 - - - - - - - 14.6 1028.1 0.0
17/05:30pm SSE 8 11 - - - - - - - 15.5 1028.1 0.0
17/05:00pm SSE 9 11 - - - - - - - 16.3 1027.8 0.0
17/04:30pm SSE 9 11 - - - - - - - 16.9 1027.4 0.0
17/04:00pm SSE 9 13 - - - - - - - 17.4 1027.2 0.0
17/03:30pm SSE 9 12 - - - - - - - 17.6 1027.3 0.0
17/03:00pm SSE 10 13 - - - - - - - 18.0 1027.6 0.0
17/02:30pm S 9 11 - - - - - - - 17.4 1027.6 0.0
17/02:00pm SSE 10 14 - - - - - - - 17.9 1027.9 0.0
17/01:30pm SSE 9 12 - - - - - - - 18.1 1028.3 0.0
17/01:00pm SSE 9 12 - - - - - - - 17.6 1028.6 0.0
17/12:30pm SSE 10 15 - - - - - - - 18.0 1029.1 0.0
17/12:00pm SSE 8 12 - - - - - - - 18.7 1029.2 0.0
17/11:30am SE 9 13 - - - - - - - 18.1 1029.6 0.0
17/11:00am SSE 7 9 - - - - - - - 16.7 1029.8 0.0
17/10:30am SE 5 6 - - - - - - - 16.2 1030.0 0.0

Other formats

Comma delimited format used in spreadsheet applications
http://www.bom.gov.au/fwo/IDS60701/IDS60701.95649.axf

JavaScript Object Notation format (JSON) in row-major order
http://www.bom.gov.au/fwo/IDS60701/IDS60701.95649.json

Data quality

Most of these data are generated automatically and are frequently updated. Quality checks on data are not normally performed. It is possible for incorrect values to appear. Refer to information at About Latest Weather Observations and please check the disclaimer before using these data.